createdAt,value
2018-09-28T00:00:34.252Z,5.03
2018-09-28T00:08:31.378Z,4.43
2018-09-28T00:10:36.146Z,4.40
2018-09-28T00:12:44.652Z,4.03
2018-09-28T00:14:50.094Z,4.43
2018-09-28T00:16:54.870Z,3.37
2018-09-28T00:18:59.723Z,4.30
2018-09-28T00:21:04.512Z,3.63
2018-09-28T00:23:09.408Z,4.80
2018-09-28T00:25:14.213Z,3.60
2018-09-28T00:27:18.970Z,2.97
2018-09-28T00:29:23.957Z,4.33
2018-09-28T00:31:34.967Z,3.57
2018-09-28T00:47:25.536Z,2.60
2018-09-28T00:52:04.039Z,3.40
2018-09-28T00:56:39.415Z,3.60
2018-09-28T00:58:46.223Z,3.50
2018-09-28T01:00:51.327Z,3.17
2018-09-28T01:05:12.508Z,4.60
2018-09-28T01:07:17.292Z,3.97
2018-09-28T01:09:22.068Z,3.53
2018-09-28T01:11:26.911Z,3.23
2018-09-28T01:13:31.886Z,4.40
2018-09-28T01:15:36.734Z,4.73
2018-09-28T01:17:41.533Z,3.60
2018-09-28T01:19:46.248Z,3.97
2018-09-28T01:21:51.076Z,4.03
2018-09-28T01:23:55.975Z,4.27
2018-09-28T01:26:00.887Z,4.47
2018-09-28T01:28:05.790Z,5.30
2018-09-28T01:30:10.860Z,4.90
2018-09-28T01:32:15.620Z,4.10
2018-09-28T01:34:20.452Z,4.10
2018-09-28T01:36:25.438Z,5.33
2018-09-28T01:38:30.151Z,4.23
2018-09-28T01:40:35.011Z,4.67
2018-09-28T01:42:39.876Z,4.70
2018-09-28T01:44:44.681Z,4.33
2018-09-28T01:46:49.744Z,4.87
2018-09-28T01:48:54.563Z,5.00
2018-09-28T01:50:59.279Z,4.83
2018-09-28T01:53:04.063Z,4.47
2018-09-28T01:55:08.943Z,5.50
2018-09-28T01:57:13.813Z,5.30
2018-09-28T01:59:18.674Z,5.20
2018-09-28T02:01:23.406Z,5.10
2018-09-28T02:03:28.263Z,5.10
2018-09-28T02:05:33.029Z,5.20
2018-09-28T02:07:37.918Z,4.90
2018-09-28T02:09:42.593Z,6.20
2018-09-28T02:11:47.359Z,4.70
2018-09-28T02:13:52.155Z,5.23
2018-09-28T02:15:56.962Z,4.40
2018-09-28T02:18:01.736Z,4.03
2018-09-28T02:20:06.664Z,5.77
2018-09-28T02:22:11.448Z,4.93
2018-09-28T02:24:16.380Z,5.40
2018-09-28T02:26:21.294Z,4.93
2018-09-28T02:28:26.071Z,5.10
2018-09-28T02:30:30.827Z,5.23
2018-09-28T02:32:35.574Z,5.10
2018-09-28T02:34:40.315Z,5.17
2018-09-28T02:36:45.126Z,4.83
2018-09-28T02:38:49.822Z,4.97
2018-09-28T02:40:54.598Z,6.40
2018-09-28T02:42:59.344Z,4.60
2018-09-28T02:45:04.145Z,4.90
2018-09-28T02:47:08.981Z,5.57
2018-09-28T02:49:13.792Z,5.13
2018-09-28T02:51:18.629Z,4.77
2018-09-28T02:53:23.382Z,5.07
2018-09-28T02:55:28.058Z,5.20
2018-09-28T02:57:32.807Z,5.10
2018-09-28T02:59:37.607Z,5.73
2018-09-28T03:01:42.457Z,5.77
2018-09-28T03:03:47.323Z,5.30
2018-09-28T03:05:52.110Z,4.87
2018-09-28T03:07:56.952Z,5.80
2018-09-28T03:10:01.747Z,5.67
2018-09-28T03:12:06.590Z,6.53
2018-09-28T03:14:11.493Z,5.60
2018-09-28T03:16:16.204Z,6.07
2018-09-28T03:18:21.051Z,6.07
2018-09-28T03:20:26.322Z,6.40
2018-09-28T03:22:31.130Z,5.73
2018-09-28T03:24:36.182Z,5.90
2018-09-28T03:26:41.083Z,4.77
2018-09-28T03:28:45.850Z,5.50
2018-09-28T03:30:50.819Z,5.37
2018-09-28T03:32:55.879Z,6.20
2018-09-28T03:35:00.562Z,7.07
2018-09-28T03:37:05.424Z,6.20
2018-09-28T03:39:10.099Z,5.80
2018-09-28T03:41:15.012Z,6.90
2018-09-28T03:43:19.927Z,6.23
2018-09-28T03:45:52.915Z,6.77
2018-09-28T03:47:57.785Z,5.60
2018-09-28T03:50:02.662Z,5.67
2018-09-28T03:52:07.475Z,5.20
2018-09-28T03:54:12.233Z,6.63
2018-09-28T03:56:17.014Z,6.80
2018-09-28T03:58:21.829Z,6.90
2018-09-28T04:00:26.583Z,6.27
2018-09-28T04:02:31.276Z,7.30
2018-09-28T04:04:36.039Z,6.70
2018-09-28T04:06:41.073Z,6.57
2018-09-28T04:08:45.805Z,6.97
2018-09-28T04:10:50.505Z,7.63
2018-09-28T04:12:55.191Z,6.43
2018-09-28T04:14:59.883Z,6.23
2018-09-28T04:17:04.735Z,6.23
2018-09-28T04:19:10.327Z,6.90
2018-09-28T04:21:15.078Z,7.30
2018-09-28T04:23:19.805Z,6.93
2018-09-28T04:25:24.605Z,6.37
2018-09-28T04:27:29.311Z,6.27
2018-09-28T04:29:33.958Z,6.07
2018-09-28T04:31:38.669Z,6.77
2018-09-28T04:33:43.734Z,6.90
2018-09-28T04:35:48.624Z,6.20
2018-09-28T04:37:53.494Z,7.00
2018-09-28T04:39:58.926Z,7.27
2018-09-28T04:42:03.692Z,7.43
2018-09-28T04:44:08.468Z,6.60
2018-09-28T04:46:13.223Z,7.43
2018-09-28T04:48:17.994Z,6.50
2018-09-28T04:50:22.781Z,6.70
2018-09-28T04:52:27.556Z,7.33
2018-09-28T04:54:32.364Z,6.90
2018-09-28T04:56:37.222Z,7.23
2018-09-28T04:58:41.901Z,6.90
2018-09-28T05:00:47.064Z,8.70
2018-09-28T05:02:52.177Z,7.33
2018-09-28T05:04:57.532Z,7.17
2018-09-28T05:07:02.612Z,7.30
2018-09-28T05:09:11.519Z,6.33
2018-09-28T05:11:16.656Z,6.67
2018-09-28T05:13:21.398Z,7.03
2018-09-28T05:15:26.338Z,7.03
2018-09-28T05:17:31.289Z,7.00
2018-09-28T05:19:36.175Z,7.77
2018-09-28T05:21:41.440Z,7.10
2018-09-28T05:23:46.402Z,6.83
2018-09-28T05:25:51.058Z,8.00
2018-09-28T05:27:55.767Z,7.80
2018-09-28T05:30:00.850Z,8.60
2018-09-28T05:32:05.751Z,7.83
2018-09-28T05:34:10.639Z,7.60
2018-09-28T05:36:15.675Z,7.50
2018-09-28T05:38:21.223Z,6.80
2018-09-28T05:40:26.291Z,7.43
2018-09-28T05:42:31.317Z,7.60
2018-09-28T05:44:36.240Z,6.10
2018-09-28T05:46:42.542Z,7.83
2018-09-28T05:48:47.456Z,6.80
2018-09-28T05:50:52.678Z,9.27
2018-09-28T05:52:57.588Z,9.57
2018-09-28T05:55:08.027Z,11.63
2018-09-28T05:57:13.144Z,15.10
2018-09-28T05:59:23.211Z,16.27
2018-09-28T06:01:33.558Z,15.80
2018-09-28T06:05:50.725Z,16.37
2018-09-28T06:07:55.786Z,16.80
2018-09-28T06:10:00.693Z,16.37
2018-09-28T06:12:05.664Z,15.90
2018-09-28T06:14:11.011Z,16.77
2018-09-28T06:16:16.054Z,15.77
2018-09-28T06:18:21.163Z,16.70
2018-09-28T06:20:26.469Z,14.87
2018-09-28T06:22:31.819Z,16.70
2018-09-28T06:24:36.926Z,15.33
2018-09-28T06:26:42.111Z,19.27
2018-09-28T06:28:47.276Z,18.60
2018-09-28T06:30:52.477Z,19.00
2018-09-28T06:32:57.651Z,19.37
2018-09-28T06:35:02.498Z,18.67
2018-09-28T06:37:07.410Z,18.40
2018-09-28T06:39:12.256Z,20.40
2018-09-28T06:41:18.323Z,18.60
2018-09-28T06:43:23.314Z,21.03
2018-09-28T06:45:28.473Z,19.20
2018-09-28T06:47:33.848Z,20.40
2018-09-28T06:49:39.022Z,20.10
2018-09-28T06:51:44.008Z,19.73
2018-09-28T06:53:49.024Z,20.80
2018-09-28T06:55:54.941Z,21.67
2018-09-28T06:58:00.327Z,20.70
2018-09-28T07:00:05.669Z,19.60
2018-09-28T07:02:10.723Z,21.00
2018-09-28T07:04:15.901Z,21.00
2018-09-28T07:06:20.951Z,20.43
2018-09-28T07:08:26.101Z,22.03
2018-09-28T07:10:31.190Z,20.70
2018-09-28T07:12:36.507Z,22.57
2018-09-28T07:14:41.630Z,20.07
2018-09-28T07:16:46.820Z,21.07
2018-09-28T07:18:51.945Z,19.20
2018-09-28T07:20:57.119Z,19.77
2018-09-28T07:23:02.007Z,21.57
2018-09-28T07:25:07.360Z,20.47
2018-09-28T07:27:12.264Z,21.40
2018-09-28T07:29:17.224Z,19.97
2018-09-28T07:31:22.597Z,22.77
2018-09-28T07:33:27.698Z,20.40
2018-09-28T07:35:33.509Z,23.07
2018-09-28T07:37:38.862Z,20.80
2018-09-28T07:39:43.878Z,23.00
2018-09-28T07:41:49.124Z,20.73
2018-09-28T07:43:54.475Z,21.27
2018-09-28T07:45:59.595Z,19.90
2018-09-28T07:48:04.893Z,20.27
2018-09-28T07:50:09.832Z,21.27
2018-09-28T07:52:15.061Z,22.47
2018-09-28T07:54:19.858Z,20.80
2018-09-28T07:56:25.193Z,22.50
2018-09-28T07:58:30.316Z,22.40
2018-09-28T08:00:35.270Z,20.00
2018-09-28T08:02:40.349Z,19.37
2018-09-28T08:04:45.632Z,20.17
2018-09-28T08:06:50.721Z,22.47
2018-09-28T08:08:55.732Z,20.77
2018-09-28T08:11:00.561Z,21.10
2018-09-28T08:13:05.801Z,20.07
2018-09-28T08:15:10.836Z,20.10
2018-09-28T08:17:15.961Z,20.27
2018-09-28T08:19:20.883Z,20.17
2018-09-28T08:21:25.989Z,20.90
2018-09-28T08:23:31.099Z,18.47
2018-09-28T08:25:36.396Z,18.27
2018-09-28T08:27:41.468Z,18.17
2018-09-28T08:29:46.578Z,18.10
2018-09-28T08:31:51.465Z,18.67
2018-09-28T08:33:56.407Z,18.30
2018-09-28T08:36:01.491Z,17.00
2018-09-28T08:38:06.743Z,19.17
2018-09-28T08:40:11.503Z,19.27
2018-09-28T08:42:16.486Z,18.20
2018-09-28T08:44:21.751Z,16.80
2018-09-28T08:46:27.122Z,16.20
2018-09-28T08:48:32.440Z,16.67
2018-09-28T08:50:37.857Z,15.50
2018-09-28T08:52:43.178Z,13.07
2018-09-28T08:54:48.549Z,12.10
2018-09-28T08:56:53.576Z,12.90
2018-09-28T08:58:58.716Z,10.70
2018-09-28T09:01:09.228Z,7.20
2018-09-28T09:03:14.225Z,9.17
2018-09-28T09:05:19.466Z,7.97
2018-09-28T09:07:24.914Z,8.60
2018-09-28T09:09:30.068Z,5.70
2018-09-28T09:11:36.364Z,5.03
2018-09-28T09:13:41.549Z,5.00
2018-09-28T09:15:48.170Z,4.40
2018-09-28T09:17:53.369Z,3.53
2018-09-28T09:19:58.787Z,2.77
2018-09-28T09:22:03.920Z,2.60
2018-09-28T09:24:09.055Z,2.40
2018-09-28T09:26:14.813Z,2.63
2018-09-28T09:28:19.893Z,1.60
2018-09-28T09:30:25.665Z,1.80
2018-09-28T09:32:30.593Z,2.00
2018-09-28T09:34:35.677Z,1.83
2018-09-28T09:36:40.978Z,1.57
2018-09-28T09:38:45.751Z,2.67
2018-09-28T09:40:50.616Z,1.57
2018-09-28T09:42:55.783Z,1.33
2018-09-28T09:45:00.994Z,1.10
2018-09-28T09:47:06.308Z,1.33
2018-09-28T09:49:11.327Z,1.40
2018-09-28T09:51:16.470Z,2.27
2018-09-28T09:53:21.290Z,3.37
2018-09-28T09:55:26.214Z,3.07
2018-09-28T09:57:31.377Z,3.30
2018-09-28T09:59:36.605Z,4.33
2018-09-28T10:01:46.651Z,3.80
2018-09-28T10:03:52.314Z,4.00
2018-09-28T10:05:57.421Z,3.87
2018-09-28T10:08:02.416Z,4.00
2018-09-28T10:10:07.877Z,3.00
2018-09-28T10:12:12.839Z,3.23
2018-09-28T10:14:17.702Z,2.30
2018-09-28T10:16:22.992Z,2.73
2018-09-28T10:18:28.042Z,2.83
2018-09-28T10:20:32.928Z,1.80
2018-09-28T10:22:38.249Z,2.70
2018-09-28T10:24:43.477Z,2.27
2018-09-28T10:26:48.226Z,1.83
2018-09-28T10:28:52.998Z,1.90
2018-09-28T10:30:57.898Z,1.60
2018-09-28T10:33:02.874Z,1.53
2018-09-28T10:35:07.955Z,2.23
2018-09-28T10:37:13.013Z,2.10
2018-09-28T10:39:17.932Z,1.80
2018-09-28T10:41:22.903Z,2.00
2018-09-28T10:43:27.832Z,2.40
2018-09-28T10:45:32.873Z,2.00
2018-09-28T10:47:38.606Z,1.43
2018-09-28T10:49:43.644Z,1.83
2018-09-28T10:51:49.395Z,2.10
2018-09-28T10:53:54.310Z,2.60
2018-09-28T10:55:59.972Z,1.70
2018-09-28T10:58:05.298Z,2.90
2018-09-28T11:00:10.523Z,2.10
2018-09-28T11:02:15.599Z,1.50
2018-09-28T11:04:20.440Z,1.93
2018-09-28T11:06:25.646Z,2.00
2018-09-28T11:08:30.844Z,4.70
2018-09-28T11:10:35.885Z,2.27
2018-09-28T11:12:41.061Z,2.17
2018-09-28T11:14:46.174Z,1.70
2018-09-28T11:16:51.125Z,1.87
2018-09-28T11:18:56.067Z,2.13
2018-09-28T11:21:01.208Z,1.73
2018-09-28T11:23:06.156Z,1.60
2018-09-28T11:25:11.430Z,1.50
2018-09-28T11:27:16.658Z,1.40
2018-09-28T11:29:21.980Z,2.60
2018-09-28T11:31:27.097Z,1.50
2018-09-28T11:33:32.345Z,1.93
2018-09-28T11:35:37.558Z,1.87
2018-09-28T11:37:42.711Z,2.23
2018-09-28T11:39:47.893Z,1.87
2018-09-28T11:41:53.058Z,3.07
2018-09-28T11:43:58.115Z,2.10
2018-09-28T11:46:03.565Z,3.10
2018-09-28T11:48:08.741Z,2.70
2018-09-28T11:50:13.829Z,2.70
2018-09-28T11:52:19.034Z,2.80
2018-09-28T11:54:24.067Z,2.70
2018-09-28T11:56:29.315Z,2.43
2018-09-28T11:58:34.518Z,3.07
2018-09-28T12:00:39.371Z,2.17
2018-09-28T12:02:44.440Z,1.90
2018-09-28T12:04:49.571Z,3.33
2018-09-28T12:06:54.971Z,2.60
2018-09-28T12:08:59.999Z,2.20
2018-09-28T12:11:05.272Z,3.30
2018-09-28T12:13:10.441Z,2.30
2018-09-28T12:15:15.554Z,1.83
2018-09-28T12:17:21.140Z,2.07
2018-09-28T12:19:26.622Z,1.30
2018-09-28T12:21:32.033Z,1.60
2018-09-28T12:23:37.655Z,1.80
2018-09-28T12:25:42.441Z,2.00
2018-09-28T12:27:47.273Z,2.00
2018-09-28T12:29:52.186Z,1.83
2018-09-28T12:31:57.393Z,1.77
2018-09-28T12:34:02.499Z,2.30
2018-09-28T12:36:08.943Z,1.30
2018-09-28T12:38:14.183Z,1.57
2018-09-28T12:40:20.081Z,2.90
2018-09-28T12:42:25.497Z,1.53
2018-09-28T12:44:31.346Z,1.40
2018-09-28T12:46:36.243Z,1.60
2018-09-28T12:48:41.358Z,1.90
2018-09-28T12:50:46.650Z,3.17
2018-09-28T12:52:51.491Z,1.73
2018-09-28T12:54:56.603Z,1.80
2018-09-28T12:57:01.767Z,2.23
2018-09-28T12:59:07.209Z,2.10
2018-09-28T13:01:12.505Z,1.67
2018-09-28T13:03:17.485Z,2.10
2018-09-28T13:05:22.401Z,1.73
2018-09-28T13:07:27.631Z,1.60
2018-09-28T13:09:32.813Z,1.77
2018-09-28T13:11:38.124Z,1.83
2018-09-28T13:13:42.870Z,1.60
2018-09-28T13:15:48.345Z,2.23
2018-09-28T13:17:53.599Z,2.30
2018-09-28T13:19:59.101Z,1.80
2018-09-28T13:22:04.411Z,1.80
2018-09-28T13:24:09.690Z,2.13
2018-09-28T13:26:15.234Z,2.60
2018-09-28T13:28:20.327Z,1.30
2018-09-28T13:30:27.294Z,1.87
2018-09-28T13:32:45.012Z,1.67
2018-09-28T13:35:02.180Z,1.93
2018-09-28T13:37:12.890Z,1.60
2018-09-28T13:39:19.621Z,2.17
2018-09-28T13:41:25.108Z,2.20
2018-09-28T13:43:30.161Z,1.57
2018-09-28T13:45:35.300Z,2.27
2018-09-28T13:47:40.160Z,1.80
2018-09-28T13:49:45.447Z,1.67
2018-09-28T13:51:50.594Z,1.90
2018-09-28T13:53:55.650Z,1.63
2018-09-28T13:56:00.743Z,1.37
2018-09-28T13:58:05.930Z,2.73
2018-09-28T14:00:11.372Z,2.30
2018-09-28T14:02:16.335Z,1.93
2018-09-28T14:04:21.699Z,1.93
2018-09-28T14:06:26.574Z,1.47
2018-09-28T14:08:31.639Z,1.90
2018-09-28T14:10:36.797Z,2.03
2018-09-28T14:12:42.149Z,1.83
2018-09-28T14:14:47.717Z,1.40
2018-09-28T14:16:53.094Z,1.67
2018-09-28T14:18:58.740Z,1.60
2018-09-28T14:21:03.867Z,2.13
2018-09-28T14:23:08.971Z,1.10
2018-09-28T14:25:14.038Z,1.70
2018-09-28T14:27:18.841Z,1.10
2018-09-28T14:29:23.658Z,1.40
2018-09-28T14:31:28.445Z,1.10
2018-09-28T14:33:33.509Z,1.30
2018-09-28T14:35:38.719Z,1.43
2018-09-28T14:37:43.686Z,1.10
2018-09-28T14:39:48.836Z,1.37
2018-09-28T14:41:54.237Z,0.97
2018-09-28T14:43:59.400Z,1.60
2018-09-28T14:46:04.522Z,1.70
2018-09-28T14:48:09.618Z,1.40
2018-09-28T14:50:14.721Z,1.27
2018-09-28T14:52:19.790Z,1.20
2018-09-28T14:54:24.976Z,2.27
2018-09-28T14:56:30.114Z,1.73
2018-09-28T14:58:35.354Z,1.43
2018-09-28T15:00:40.729Z,0.90
2018-09-28T15:02:45.857Z,0.60
2018-09-28T15:04:51.297Z,0.87
2018-09-28T15:06:56.788Z,1.00
2018-09-28T15:09:01.931Z,1.40
2018-09-28T15:11:07.061Z,1.33
2018-09-28T15:13:12.323Z,1.30
2018-09-28T15:15:17.502Z,1.03
2018-09-28T15:17:22.966Z,0.87
2018-09-28T15:19:28.098Z,1.40
2018-09-28T15:21:33.228Z,0.90
2018-09-28T15:23:38.202Z,1.37
2018-09-28T15:25:43.314Z,1.00
2018-09-28T15:27:48.141Z,1.07
2018-09-28T15:29:52.969Z,0.77
2018-09-28T15:31:58.133Z,1.17
2018-09-28T15:34:02.940Z,1.00
2018-09-28T15:36:08.268Z,1.13
2018-09-28T15:38:13.553Z,0.90
2018-09-28T15:40:18.320Z,1.60
2018-09-28T15:42:23.204Z,1.57
2018-09-28T15:44:27.942Z,1.43
2018-09-28T15:46:32.935Z,1.37
2018-09-28T15:48:38.417Z,1.40
2018-09-28T15:50:44.300Z,1.23
2018-09-28T15:52:49.380Z,0.93
2018-09-28T15:54:54.445Z,1.00
2018-09-28T15:56:59.295Z,1.57
2018-09-28T15:59:04.225Z,1.00
2018-09-28T16:01:10.256Z,1.10
2018-09-28T16:03:17.063Z,1.00
2018-09-28T16:05:21.891Z,0.73
2018-09-28T16:07:26.649Z,0.90
2018-09-28T16:09:31.524Z,1.17
2018-09-28T16:11:36.392Z,0.90
2018-09-28T16:13:41.474Z,0.97
2018-09-28T16:15:47.867Z,1.30
2018-09-28T16:17:52.988Z,1.03
2018-09-28T16:19:57.763Z,1.50
2018-09-28T16:22:02.514Z,1.20
2018-09-28T16:24:07.669Z,1.20
2018-09-28T16:26:12.817Z,1.30
2018-09-28T16:28:18.277Z,0.90
2018-09-28T16:30:23.398Z,0.80
2018-09-28T16:32:28.562Z,1.07
2018-09-28T16:34:33.617Z,0.73
2018-09-28T16:36:39.202Z,0.80
2018-09-28T16:38:44.297Z,1.10
2018-09-28T16:40:49.268Z,0.80
2018-09-28T16:42:54.429Z,1.40
2018-09-28T16:44:59.295Z,1.30
2018-09-28T16:47:04.147Z,1.47
2018-09-28T16:49:09.285Z,1.37
2018-09-28T16:51:14.342Z,2.30
2018-09-28T16:53:19.437Z,1.20
2018-09-28T16:55:24.467Z,1.03
2018-09-28T16:57:29.580Z,1.20
2018-09-28T16:59:34.309Z,1.23
2018-09-28T17:01:39.370Z,1.07
2018-09-28T17:03:44.197Z,1.57
2018-09-28T17:05:49.015Z,1.57
2018-09-28T17:07:54.866Z,1.00
2018-09-28T17:10:00.507Z,1.53
2018-09-28T17:12:05.750Z,1.00
2018-09-28T17:14:10.811Z,1.10
2018-09-28T17:16:15.759Z,1.43
2018-09-28T17:18:20.619Z,1.57
2018-09-28T17:20:25.979Z,1.47
2018-09-28T17:22:31.323Z,1.13
2018-09-28T17:24:36.052Z,1.13
2018-09-28T17:26:40.910Z,0.90
2018-09-28T17:28:45.784Z,1.07
2018-09-28T17:30:50.932Z,1.40
2018-09-28T17:32:55.981Z,0.97
2018-09-28T17:35:01.084Z,1.80
2018-09-28T17:37:06.283Z,1.23
2018-09-28T17:39:13.938Z,0.80
2018-09-28T17:41:19.827Z,1.20
2018-09-28T17:43:25.412Z,1.10
2018-09-28T17:45:30.459Z,0.90
2018-09-28T17:47:35.213Z,0.90
2018-09-28T17:49:40.117Z,1.00
2018-09-28T17:51:45.161Z,1.20
2018-09-28T17:53:50.500Z,0.80
2018-09-28T17:55:55.664Z,1.30
2018-09-28T17:58:00.598Z,1.13
2018-09-28T18:00:05.891Z,0.90
2018-09-28T18:02:11.264Z,1.13
2018-09-28T18:04:16.243Z,0.77
2018-09-28T18:06:21.348Z,1.30
2018-09-28T18:08:26.296Z,1.30
2018-09-28T18:10:31.610Z,1.73
2018-09-28T18:12:36.797Z,1.47
2018-09-28T18:14:42.887Z,1.30
2018-09-28T18:16:47.936Z,0.80
2018-09-28T18:18:53.381Z,1.20
2018-09-28T18:20:58.589Z,0.87
2018-09-28T18:23:04.014Z,1.00
2018-09-28T18:25:09.307Z,1.57
2018-09-28T18:27:14.584Z,1.10
2018-09-28T18:29:21.439Z,1.83
2018-09-28T18:31:27.029Z,1.27
2018-09-28T18:33:36.698Z,1.53
2018-09-28T18:35:43.792Z,1.77
2018-09-28T18:37:49.605Z,1.43
2018-09-28T18:39:55.377Z,1.53
2018-09-28T18:42:00.704Z,1.43
2018-09-28T18:44:06.160Z,1.70
2018-09-28T18:46:11.168Z,1.10
2018-09-28T18:48:16.457Z,1.40
2018-09-28T18:50:21.559Z,1.90
2018-09-28T18:52:27.108Z,1.77
2018-09-28T18:54:32.658Z,2.40
2018-09-28T18:56:38.105Z,1.20
2018-09-28T18:58:43.537Z,1.47
2018-09-28T19:00:50.503Z,1.80
2018-09-28T19:02:55.752Z,1.13
2018-09-28T19:05:00.949Z,1.53
2018-09-28T19:07:06.679Z,1.60
2018-09-28T19:09:13.110Z,1.33
2018-09-28T19:11:18.639Z,1.87
2018-09-28T19:13:24.502Z,1.57
2018-09-28T19:15:31.481Z,1.37
2018-09-28T19:17:38.040Z,1.10
2018-09-28T19:19:44.921Z,1.20
2018-09-28T19:21:50.703Z,1.40
2018-09-28T19:23:55.892Z,1.33
2018-09-28T19:26:01.903Z,1.10
2018-09-28T19:28:07.729Z,1.20
2018-09-28T19:30:12.828Z,1.30
2018-09-28T19:32:19.807Z,1.10
2018-09-28T19:34:25.163Z,1.27
2018-09-28T19:36:31.812Z,1.17
2018-09-28T19:38:38.651Z,1.27
2018-09-28T19:40:46.195Z,1.30
2018-09-28T19:42:52.888Z,1.93
2018-09-28T19:45:02.430Z,1.33
2018-09-28T19:47:09.255Z,1.40
2018-09-28T19:49:19.007Z,1.57
2018-09-28T19:51:33.674Z,1.20
2018-09-28T19:53:40.955Z,1.20
2018-09-28T19:55:46.883Z,1.37
2018-09-28T19:57:54.972Z,1.37
2018-09-28T20:00:04.428Z,1.10
2018-09-28T20:02:12.370Z,1.63
2018-09-28T20:04:21.417Z,1.67
2018-09-28T20:06:28.220Z,1.17
2018-09-28T20:08:35.804Z,1.53
2018-09-28T20:10:44.963Z,1.23
2018-09-28T20:12:56.344Z,1.53
2018-09-28T20:15:12.136Z,1.60
2018-09-28T20:17:18.272Z,1.60
2018-09-28T20:19:25.607Z,1.10
2018-09-28T20:21:32.694Z,1.50
2018-09-28T20:23:39.678Z,2.07
2018-09-28T20:25:44.991Z,0.90
2018-09-28T20:27:50.507Z,1.47
2018-09-28T20:29:55.635Z,1.30
2018-09-28T20:32:02.973Z,1.30
2018-09-28T20:34:09.208Z,1.60
2018-09-28T20:36:14.185Z,1.43
2018-09-28T20:38:19.510Z,1.63
2018-09-28T20:40:24.766Z,1.50
2018-09-28T20:42:35.350Z,2.20
2018-09-28T20:44:42.547Z,2.00
2018-09-28T20:46:48.698Z,1.90
2018-09-28T20:48:53.972Z,2.43
2018-09-28T20:50:59.577Z,1.63
2018-09-28T20:53:06.938Z,1.60
2018-09-28T20:55:18.628Z,1.80
2018-09-28T20:57:24.212Z,1.67
2018-09-28T20:59:30.907Z,1.63
2018-09-28T21:01:39.600Z,1.87
2018-09-28T21:03:50.237Z,2.67
2018-09-28T21:05:55.720Z,2.30
2018-09-28T21:08:02.461Z,1.80
2018-09-28T21:10:08.655Z,2.00
2018-09-28T21:12:13.887Z,1.37
2018-09-28T21:14:18.902Z,1.80
2018-09-28T21:16:24.369Z,1.90
2018-09-28T21:18:30.105Z,1.60
2018-09-28T21:20:38.816Z,2.20
2018-09-28T21:22:46.333Z,1.50
2018-09-28T21:24:52.792Z,2.10
2018-09-28T21:26:59.766Z,2.00
2018-09-28T21:29:05.702Z,1.87
2018-09-28T21:31:11.509Z,1.83
2018-09-28T21:33:17.065Z,2.90
2018-09-28T21:35:22.044Z,2.17
2018-09-28T21:37:27.073Z,2.57
2018-09-28T21:39:32.027Z,2.83
2018-09-28T21:41:36.919Z,2.20
2018-09-28T21:43:42.317Z,1.83
2018-09-28T21:45:48.175Z,2.10
2018-09-28T21:47:54.324Z,2.37
2018-09-28T21:49:59.212Z,2.37
2018-09-28T21:52:04.357Z,2.00
2018-09-28T21:54:09.437Z,2.80
2018-09-28T21:56:14.946Z,2.50
2018-09-28T21:58:21.592Z,2.70
2018-09-28T22:00:27.001Z,1.93
2018-09-28T22:02:32.698Z,2.23
2018-09-28T22:04:38.937Z,1.97
2018-09-28T22:06:44.271Z,3.20
2018-09-28T22:08:49.217Z,2.40
2018-09-28T22:10:54.076Z,2.30
2018-09-28T22:12:58.898Z,2.80
2018-09-28T22:15:03.894Z,2.23
2018-09-28T22:17:08.714Z,1.90
2018-09-28T22:19:13.815Z,2.27
2018-09-28T22:21:18.812Z,2.80
2018-09-28T22:23:23.594Z,2.60
2018-09-28T22:25:28.554Z,1.87
2018-09-28T22:27:33.405Z,2.10
2018-09-28T22:29:38.285Z,2.57
2018-09-28T22:31:43.178Z,1.90
2018-09-28T22:33:48.145Z,2.00
2018-09-28T22:35:52.962Z,2.20
2018-09-28T22:37:57.916Z,2.33
2018-09-28T22:40:02.807Z,2.30
2018-09-28T22:42:07.143Z,2.67
2018-09-28T22:44:11.865Z,2.27
2018-09-28T22:46:16.713Z,1.50
2018-09-28T22:48:21.471Z,2.37
2018-09-28T22:50:27.662Z,1.83
2018-09-28T22:52:32.531Z,1.87
2018-09-28T22:54:37.281Z,1.83
2018-09-28T22:56:42.119Z,2.00
2018-09-28T22:58:46.887Z,1.90
2018-09-28T23:00:51.870Z,1.93
2018-09-28T23:02:57.206Z,1.80
2018-09-28T23:05:02.942Z,1.83
2018-09-28T23:07:08.189Z,2.07
2018-09-28T23:09:13.190Z,1.93
2018-09-28T23:11:18.405Z,2.30
2018-09-28T23:13:23.501Z,1.20
2018-09-28T23:15:28.224Z,1.90
2018-09-28T23:17:33.079Z,1.93
2018-09-28T23:19:38.120Z,2.03
2018-09-28T23:21:43.312Z,1.80
2018-09-28T23:23:48.368Z,1.23
2018-09-28T23:25:53.440Z,2.00
2018-09-28T23:27:58.595Z,2.00
2018-09-28T23:30:03.719Z,1.80
2018-09-28T23:32:09.346Z,1.50
2018-09-28T23:34:14.399Z,1.93
2018-09-28T23:36:19.376Z,1.57
2018-09-28T23:38:25.064Z,1.83
2018-09-28T23:40:29.879Z,1.83
2018-09-28T23:42:34.925Z,2.00
2018-09-28T23:44:39.949Z,1.60
2018-09-28T23:46:44.960Z,1.63
2018-09-28T23:48:50.105Z,1.90
2018-09-28T23:50:55.013Z,1.40
2018-09-28T23:52:59.969Z,1.80
2018-09-28T23:55:04.977Z,1.53
2018-09-28T23:57:09.964Z,1.80
2018-09-28T23:59:14.887Z,1.90
